createdAt,value
2023-01-21T00:01:11.953Z,58.40
2023-01-21T00:03:39.773Z,59.15
2023-01-21T00:06:07.992Z,56.15
2023-01-21T00:08:35.655Z,61.53
2023-01-21T00:11:08.791Z,58.10
2023-01-21T00:13:37.041Z,55.00
2023-01-21T00:16:05.979Z,58.33
2023-01-21T00:18:34.104Z,54.37
2023-01-21T00:21:01.723Z,59.45
2023-01-21T00:23:29.413Z,55.53
2023-01-21T00:26:00.431Z,57.50
2023-01-21T00:28:30.812Z,61.00
2023-01-21T00:30:59.366Z,58.83
2023-01-21T00:33:27.057Z,58.93
2023-01-21T00:35:59.499Z,59.33
2023-01-21T00:38:27.053Z,57.08
2023-01-21T00:40:54.713Z,57.83
2023-01-21T00:43:22.371Z,55.08
2023-01-21T00:45:51.389Z,59.63
2023-01-21T00:48:18.953Z,59.00
2023-01-21T00:50:46.571Z,58.22
2023-01-21T00:53:14.114Z,60.63
2023-01-21T00:55:41.688Z,62.20
2023-01-21T00:58:09.384Z,62.20
2023-01-21T01:00:37.085Z,59.88
2023-01-21T01:03:06.003Z,58.90
2023-01-21T01:05:33.569Z,62.03
2023-01-21T01:08:01.221Z,63.40
2023-01-21T01:10:28.796Z,62.55
2023-01-21T01:12:56.423Z,58.13
2023-01-21T01:15:24.027Z,56.58
2023-01-21T01:17:51.690Z,57.90
2023-01-21T01:20:20.663Z,57.45
2023-01-21T01:22:48.265Z,60.88
2023-01-21T01:25:15.958Z,63.37
2023-01-21T01:27:43.555Z,60.78
2023-01-21T01:30:12.332Z,62.78
2023-01-21T01:32:40.011Z,58.87
2023-01-21T01:35:08.205Z,66.28
2023-01-21T01:37:37.337Z,66.22
2023-01-21T01:40:05.683Z,64.15
2023-01-21T01:42:33.358Z,66.00
2023-01-21T01:45:02.376Z,67.32
2023-01-21T01:47:32.705Z,64.10
2023-01-21T01:50:01.659Z,67.07
2023-01-21T01:52:30.095Z,72.03
2023-01-21T01:55:01.444Z,70.47
2023-01-21T01:57:33.654Z,63.75
2023-01-21T02:00:03.806Z,71.90
2023-01-21T02:02:32.815Z,71.65
2023-01-21T02:05:04.574Z,67.88
2023-01-21T02:07:39.202Z,69.65
2023-01-21T02:10:10.136Z,69.35
2023-01-21T02:12:39.057Z,69.13
2023-01-21T02:15:08.149Z,70.22
2023-01-21T02:17:45.780Z,73.20
2023-01-21T02:20:28.633Z,73.47
2023-01-21T02:23:00.991Z,67.72
2023-01-21T02:26:22.653Z,71.35
2023-01-21T02:29:22.149Z,70.53
2023-01-21T02:32:14.564Z,70.75
2023-01-21T02:34:44.909Z,74.97
2023-01-21T02:37:15.250Z,79.85
2023-01-21T02:39:54.904Z,78.47
2023-01-21T02:42:26.064Z,69.00
2023-01-21T02:45:00.681Z,71.63
2023-01-21T02:47:30.564Z,74.35
2023-01-21T02:50:03.300Z,78.53
2023-01-21T02:52:31.124Z,75.70
2023-01-21T02:54:59.799Z,75.53
2023-01-21T02:57:41.026Z,63.95
2023-01-21T03:00:12.491Z,68.55
2023-01-21T03:03:24.801Z,75.30
2023-01-21T03:06:21.869Z,68.65
2023-01-21T03:08:54.771Z,72.70
2023-01-21T03:11:23.079Z,66.83
2023-01-21T03:14:11.296Z,70.97
2023-01-21T03:17:00.619Z,69.17
2023-01-21T03:19:38.227Z,63.07
2023-01-21T03:22:10.447Z,69.85
2023-01-21T03:24:38.893Z,65.15
2023-01-21T03:27:09.975Z,65.45
2023-01-21T03:29:38.682Z,62.92
2023-01-21T03:32:09.362Z,67.75
2023-01-21T03:34:39.619Z,66.32
2023-01-21T03:37:11.091Z,65.25
2023-01-21T03:39:45.712Z,61.85
2023-01-21T03:42:14.277Z,66.95
2023-01-21T03:44:42.107Z,60.42
2023-01-21T03:47:17.070Z,59.78
2023-01-21T03:49:47.422Z,59.70
2023-01-21T03:52:16.843Z,62.38
2023-01-21T03:54:44.450Z,64.47
2023-01-21T03:57:12.094Z,62.93
2023-01-21T03:59:39.753Z,57.72
2023-01-21T04:02:07.323Z,58.75
2023-01-21T04:04:34.905Z,58.22
2023-01-21T04:07:02.500Z,58.83
2023-01-21T04:09:31.500Z,70.00
2023-01-21T04:12:00.406Z,67.25
2023-01-21T04:14:28.061Z,72.70
2023-01-21T04:16:55.713Z,64.33
2023-01-21T04:19:23.320Z,67.82
2023-01-21T04:21:51.114Z,62.75
2023-01-21T04:24:18.767Z,64.88
2023-01-21T04:26:47.665Z,60.25
2023-01-21T04:29:15.432Z,61.47
2023-01-21T04:31:43.013Z,60.55
2023-01-21T04:34:10.844Z,62.63
2023-01-21T04:36:38.437Z,58.40
2023-01-21T04:39:06.064Z,57.55
2023-01-21T04:41:33.608Z,58.13
2023-01-21T04:44:02.519Z,60.83
2023-01-21T04:46:30.123Z,60.95
2023-01-21T04:48:57.694Z,59.65
2023-01-21T04:51:25.256Z,62.13
2023-01-21T04:53:52.866Z,61.78
2023-01-21T04:56:20.463Z,59.58
2023-01-21T04:58:48.094Z,60.03
2023-01-21T05:01:17.099Z,59.72
2023-01-21T05:03:44.693Z,65.53
2023-01-21T05:06:12.239Z,58.53
2023-01-21T05:08:39.830Z,58.00
2023-01-21T05:11:08.697Z,59.72
2023-01-21T05:13:36.271Z,57.30
2023-01-21T05:16:04.948Z,63.55
2023-01-21T05:18:33.897Z,67.22
2023-01-21T05:21:01.537Z,57.22
2023-01-21T05:23:29.148Z,58.75
2023-01-21T05:25:56.775Z,58.20
2023-01-21T05:28:24.351Z,63.78
2023-01-21T05:30:51.980Z,64.55
2023-01-21T05:33:23.869Z,60.35
2023-01-21T05:35:52.897Z,57.75
2023-01-21T05:38:20.483Z,58.13
2023-01-21T05:40:48.077Z,57.63
2023-01-21T05:43:15.757Z,60.95
2023-01-21T05:45:43.372Z,57.90
2023-01-21T05:48:11.002Z,58.17
2023-01-21T05:50:39.440Z,56.75
2023-01-21T05:53:08.433Z,57.47
2023-01-21T05:55:37.688Z,59.63
2023-01-21T05:58:05.302Z,56.00
2023-01-21T06:00:32.886Z,53.92
2023-01-21T06:03:01.855Z,56.08
2023-01-21T06:05:29.590Z,56.70
2023-01-21T06:07:57.168Z,58.45
2023-01-21T06:10:26.041Z,54.60
2023-01-21T06:12:53.936Z,61.80
2023-01-21T06:15:21.781Z,56.72
2023-01-21T06:17:49.376Z,57.53
2023-01-21T06:20:17.333Z,59.88
2023-01-21T06:22:45.060Z,60.92
2023-01-21T06:25:12.989Z,56.60
2023-01-21T06:27:42.005Z,55.70
2023-01-21T06:30:11.721Z,59.83
2023-01-21T06:32:39.406Z,63.95
2023-01-21T06:35:07.289Z,59.73
2023-01-21T06:37:34.890Z,56.40
2023-01-21T06:40:02.441Z,57.45
2023-01-21T06:42:30.000Z,59.85
2023-01-21T06:44:58.907Z,66.47
2023-01-21T06:47:26.573Z,63.17
2023-01-21T06:49:54.209Z,62.10
2023-01-21T06:52:22.541Z,65.03
2023-01-21T06:54:50.169Z,68.63
2023-01-21T06:57:17.721Z,73.80
2023-01-21T06:59:45.642Z,80.20
2023-01-21T07:02:14.649Z,79.60
2023-01-21T07:04:42.258Z,72.70
2023-01-21T07:07:09.867Z,75.35
2023-01-21T07:09:37.407Z,79.68
2023-01-21T07:12:05.190Z,78.63
2023-01-21T07:14:32.754Z,77.53
2023-01-21T07:17:00.336Z,77.47
2023-01-21T07:19:29.251Z,75.43
2023-01-21T07:21:56.819Z,79.75
2023-01-21T07:24:24.361Z,80.40
2023-01-21T07:26:51.919Z,82.20
2023-01-21T07:29:19.462Z,80.20
2023-01-21T07:31:47.247Z,86.55
2023-01-21T07:34:14.825Z,91.68
2023-01-21T07:36:43.788Z,93.13
2023-01-21T07:39:11.610Z,91.22
2023-01-21T07:41:39.250Z,90.05
2023-01-21T07:44:07.005Z,93.77
2023-01-21T07:46:34.914Z,93.25
2023-01-21T07:49:02.565Z,95.53
2023-01-21T07:51:30.156Z,88.05
2023-01-21T07:53:59.371Z,88.78
2023-01-21T07:56:27.290Z,96.18
2023-01-21T07:58:54.950Z,94.88
2023-01-21T08:01:25.245Z,92.27
2023-01-21T08:03:53.036Z,102.05
2023-01-21T08:06:20.678Z,99.25
2023-01-21T08:08:48.257Z,96.82
2023-01-21T08:11:17.206Z,99.50
2023-01-21T08:13:45.577Z,96.03
2023-01-21T08:16:13.626Z,95.43
2023-01-21T08:18:41.397Z,102.97
2023-01-21T08:21:09.072Z,95.63
2023-01-21T08:23:36.804Z,101.97
2023-01-21T08:26:05.548Z,100.18
2023-01-21T08:28:34.776Z,99.53
2023-01-21T08:31:07.134Z,101.60
2023-01-21T08:33:35.169Z,102.27
2023-01-21T08:36:03.049Z,101.57
2023-01-21T08:38:30.848Z,104.15
2023-01-21T08:40:59.067Z,101.78
2023-01-21T08:43:27.079Z,106.18
2023-01-21T08:45:58.578Z,105.85
2023-01-21T08:48:26.348Z,105.95
2023-01-21T08:50:54.364Z,107.70
2023-01-21T08:53:22.569Z,102.45
2023-01-21T08:55:50.194Z,106.50
2023-01-21T08:58:17.774Z,111.30
2023-01-21T09:00:45.353Z,106.38
2023-01-21T09:03:17.040Z,112.70
2023-01-21T09:05:44.633Z,122.22
2023-01-21T09:08:12.391Z,155.27
2023-01-21T09:10:57.813Z,152.80
2023-01-21T09:13:27.260Z,135.68
2023-01-21T09:15:55.965Z,220.93
2023-01-21T09:18:25.040Z,210.27
2023-01-21T09:20:52.796Z,228.35
2023-01-21T09:23:27.591Z,172.45
2023-01-21T09:25:57.111Z,178.80
2023-01-21T09:28:24.769Z,142.27
2023-01-21T09:30:57.206Z,140.85
2023-01-21T09:33:26.594Z,157.25
2023-01-21T09:35:54.845Z,143.68
2023-01-21T09:38:22.791Z,134.77
2023-01-21T09:40:50.929Z,136.15
2023-01-21T09:43:22.740Z,118.68
2023-01-21T09:45:51.300Z,117.70
2023-01-21T09:48:27.739Z,102.60
2023-01-21T09:50:55.976Z,107.18
2023-01-21T09:53:28.828Z,99.47
2023-01-21T09:55:58.895Z,92.77
2023-01-21T09:58:30.658Z,97.82
2023-01-21T10:01:00.331Z,94.43
2023-01-21T10:03:34.525Z,88.65
2023-01-21T10:06:12.447Z,104.37
2023-01-21T10:08:59.689Z,96.47
2023-01-21T10:11:35.747Z,102.28
2023-01-21T10:14:19.916Z,82.70
2023-01-21T10:16:51.819Z,87.60
2023-01-21T10:19:24.501Z,88.68
2023-01-21T10:21:55.715Z,87.15
2023-01-21T10:24:25.970Z,96.45
2023-01-21T10:26:54.905Z,92.25
2023-01-21T10:29:24.825Z,78.47
2023-01-21T10:31:59.197Z,83.47
2023-01-21T10:34:30.825Z,84.82
2023-01-21T10:37:04.796Z,70.07
2023-01-21T10:39:39.840Z,67.32
2023-01-21T10:42:16.557Z,75.07
2023-01-21T10:44:47.774Z,64.68
2023-01-21T10:47:21.583Z,65.93
2023-01-21T10:49:58.031Z,64.75
2023-01-21T10:52:33.103Z,55.45
2023-01-21T10:55:04.192Z,57.63
2023-01-21T10:57:43.017Z,56.30
2023-01-21T11:00:19.905Z,61.25
2023-01-21T11:02:50.496Z,63.35
2023-01-21T11:05:19.967Z,69.65
2023-01-21T11:07:47.725Z,67.90
2023-01-21T11:10:19.515Z,135.57
2023-01-21T11:12:47.118Z,237.85
2023-01-21T11:15:16.801Z,186.65
2023-01-21T11:17:46.319Z,203.20
2023-01-21T11:20:21.992Z,177.70
2023-01-21T11:22:50.561Z,157.70
2023-01-21T11:25:37.219Z,98.40
2023-01-21T11:28:05.554Z,124.43
2023-01-21T11:30:50.248Z,162.85
2023-01-21T11:33:24.881Z,119.38
2023-01-21T11:35:54.490Z,122.80
2023-01-21T11:38:27.292Z,181.73
2023-01-21T11:41:02.632Z,142.60
2023-01-21T11:43:37.698Z,105.53
2023-01-21T11:46:21.716Z,107.97
2023-01-21T11:48:49.504Z,113.33
2023-01-21T11:51:18.843Z,105.03
2023-01-21T11:53:47.245Z,89.82
2023-01-21T11:56:15.955Z,80.67
2023-01-21T11:58:43.946Z,83.78
2023-01-21T12:01:19.860Z,112.10
2023-01-21T12:03:49.393Z,72.37
2023-01-21T12:06:20.773Z,64.17
2023-01-21T12:08:50.598Z,64.43
2023-01-21T12:11:21.285Z,55.65
2023-01-21T12:13:52.452Z,59.05
2023-01-21T12:16:27.793Z,78.53
2023-01-21T12:19:19.103Z,67.28
2023-01-21T12:22:00.007Z,58.40
2023-01-21T12:24:38.745Z,58.53
2023-01-21T12:27:13.905Z,57.45
2023-01-21T12:29:50.803Z,51.90
2023-01-21T12:32:23.806Z,54.58
2023-01-21T12:34:55.387Z,50.00
2023-01-21T12:37:28.287Z,54.47
2023-01-21T12:39:57.533Z,56.45
2023-01-21T12:42:29.275Z,51.37
2023-01-21T12:44:59.166Z,50.33
2023-01-21T12:47:31.595Z,51.13
2023-01-21T12:50:16.477Z,48.90
2023-01-21T12:52:51.640Z,48.80
2023-01-21T12:55:22.186Z,49.40
2023-01-21T12:57:55.153Z,43.88
2023-01-21T13:00:26.036Z,46.87
2023-01-21T13:03:00.358Z,48.67
2023-01-21T13:05:33.874Z,45.20
2023-01-21T13:08:19.938Z,45.67
2023-01-21T13:10:50.046Z,47.08
2023-01-21T13:13:19.755Z,46.70
2023-01-21T13:15:51.095Z,40.72
2023-01-21T13:18:22.609Z,42.35
2023-01-21T13:20:53.868Z,41.88
2023-01-21T13:23:29.314Z,41.65
2023-01-21T13:26:02.665Z,44.00
2023-01-21T13:28:33.461Z,42.37
2023-01-21T13:31:04.216Z,40.83
2023-01-21T13:33:37.748Z,44.90
2023-01-21T13:36:16.356Z,41.38
2023-01-21T13:38:50.533Z,41.42
2023-01-21T13:41:28.550Z,41.63
2023-01-21T13:44:11.834Z,42.37
2023-01-21T13:46:49.799Z,37.22
2023-01-21T13:49:53.529Z,38.90
2023-01-21T13:52:24.319Z,38.22
2023-01-21T13:55:04.497Z,41.17
2023-01-21T13:57:44.525Z,38.15
2023-01-21T14:00:14.422Z,40.03
2023-01-21T14:02:47.949Z,43.50
2023-01-21T14:05:18.328Z,43.90
2023-01-21T14:07:48.400Z,47.92
2023-01-21T14:10:21.793Z,75.43
2023-01-21T14:13:22.844Z,67.85
2023-01-21T14:16:03.456Z,47.42
2023-01-21T14:18:53.392Z,53.38
2023-01-21T14:21:30.976Z,48.78
2023-01-21T14:24:14.887Z,68.55
2023-01-21T14:26:57.219Z,77.15
2023-01-21T14:29:31.037Z,75.75
2023-01-21T14:32:05.902Z,54.17
2023-01-21T14:34:40.803Z,83.63
2023-01-21T14:37:11.215Z,69.45
2023-01-21T14:39:53.541Z,61.53
2023-01-21T14:42:40.910Z,63.92
2023-01-21T14:45:09.289Z,60.72
2023-01-21T14:47:46.253Z,78.35
2023-01-21T14:50:47.270Z,53.00
2023-01-21T14:53:19.994Z,93.88
2023-01-21T14:55:47.609Z,170.65
2023-01-21T14:58:23.435Z,213.90
2023-01-21T15:00:51.583Z,163.88
2023-01-21T15:03:22.975Z,147.40
2023-01-21T15:05:52.065Z,186.13
2023-01-21T15:08:23.033Z,132.65
2023-01-21T15:10:53.132Z,251.32
2023-01-21T15:13:35.881Z,183.43
2023-01-21T15:16:07.936Z,211.45
2023-01-21T15:18:37.783Z,353.00
2023-01-21T15:21:36.129Z,269.58
2023-01-21T15:24:32.309Z,174.20
2023-01-21T15:27:17.625Z,286.27
2023-01-21T15:29:47.870Z,204.02
2023-01-21T15:32:22.790Z,205.82
2023-01-21T15:34:53.297Z,209.80
2023-01-21T15:37:22.936Z,217.60
2023-01-21T15:39:52.225Z,131.48
2023-01-21T15:42:24.257Z,245.00
2023-01-21T15:45:17.465Z,109.13
2023-01-21T15:47:55.938Z,109.38
2023-01-21T15:50:26.192Z,155.75
2023-01-21T15:53:05.147Z,155.97
2023-01-21T15:55:42.455Z,134.70
2023-01-21T15:58:21.606Z,280.27
2023-01-21T16:00:54.813Z,251.15
2023-01-21T16:03:25.787Z,193.85
2023-01-21T16:06:00.285Z,137.13
2023-01-21T16:08:39.528Z,111.30
2023-01-21T16:11:20.366Z,278.48
2023-01-21T16:13:53.986Z,120.25
2023-01-21T16:16:30.856Z,269.93
2023-01-21T16:19:03.147Z,337.08
2023-01-21T16:21:32.406Z,178.88
2023-01-21T16:24:02.583Z,150.07
2023-01-21T16:26:33.167Z,146.30
2023-01-21T16:29:00.824Z,254.82
2023-01-21T16:31:29.812Z,245.30
2023-01-21T16:33:57.468Z,239.05
2023-01-21T16:36:25.070Z,125.57
2023-01-21T16:38:52.639Z,158.68
2023-01-21T16:41:29.186Z,154.85
2023-01-21T16:43:59.691Z,283.83
2023-01-21T16:46:34.401Z,267.55
2023-01-21T16:49:04.742Z,138.48
2023-01-21T16:51:34.569Z,240.77
2023-01-21T16:54:24.709Z,124.18
2023-01-21T16:56:56.143Z,110.68
2023-01-21T16:59:27.595Z,148.68
2023-01-21T17:01:57.490Z,113.18
2023-01-21T17:04:25.199Z,183.57
2023-01-21T17:06:53.895Z,116.18
2023-01-21T17:09:26.510Z,122.38
2023-01-21T17:11:54.648Z,103.20
2023-01-21T17:14:24.627Z,142.57
2023-01-21T17:16:54.096Z,173.80
2023-01-21T17:19:26.445Z,244.02
2023-01-21T17:21:56.919Z,108.13
2023-01-21T17:24:27.304Z,103.75
2023-01-21T17:26:57.027Z,230.52
2023-01-21T17:29:28.423Z,104.72
2023-01-21T17:31:57.256Z,89.20
2023-01-21T17:34:27.926Z,82.82
2023-01-21T17:36:56.126Z,152.30
2023-01-21T17:40:00.698Z,60.90
2023-01-21T17:42:33.711Z,48.75
2023-01-21T17:45:04.112Z,56.63
2023-01-21T17:47:33.346Z,60.50
2023-01-21T17:50:06.489Z,38.92
2023-01-21T17:52:34.094Z,36.57
2023-01-21T17:55:12.312Z,40.75
2023-01-21T17:57:39.899Z,40.92
2023-01-21T18:00:29.348Z,35.90
2023-01-21T18:02:57.025Z,35.28
2023-01-21T18:05:26.026Z,37.92
2023-01-21T18:07:53.670Z,37.05
2023-01-21T18:10:24.347Z,35.20
2023-01-21T18:12:52.158Z,33.90
2023-01-21T18:15:20.608Z,33.85
2023-01-21T18:17:50.917Z,32.22
2023-01-21T18:20:20.020Z,35.25
2023-01-21T18:22:50.051Z,36.10
2023-01-21T18:25:18.710Z,37.63
2023-01-21T18:27:47.495Z,37.78
2023-01-21T18:30:18.273Z,39.45
2023-01-21T18:32:46.328Z,39.45
2023-01-21T18:35:16.531Z,37.85
2023-01-21T18:37:44.412Z,37.03
2023-01-21T18:40:17.657Z,36.67
2023-01-21T18:42:46.748Z,35.35
2023-01-21T18:45:16.174Z,39.08
2023-01-21T18:47:43.947Z,39.35
2023-01-21T18:50:15.284Z,43.13
2023-01-21T18:52:43.033Z,40.20
2023-01-21T18:55:11.179Z,46.40
2023-01-21T18:57:41.365Z,48.40
2023-01-21T19:00:17.533Z,46.88
2023-01-21T19:02:45.573Z,43.15
2023-01-21T19:05:13.712Z,44.23
2023-01-21T19:07:41.513Z,45.05
2023-01-21T19:10:13.235Z,47.08
2023-01-21T19:12:42.105Z,45.03
2023-01-21T19:15:12.395Z,43.63
2023-01-21T19:17:40.700Z,46.17
2023-01-21T19:20:15.852Z,48.08
2023-01-21T19:22:43.666Z,52.42
2023-01-21T19:25:11.714Z,50.75
2023-01-21T19:27:43.097Z,55.63
2023-01-21T19:30:19.672Z,55.92
2023-01-21T19:32:47.476Z,56.43
2023-01-21T19:35:16.282Z,59.90
2023-01-21T19:37:44.783Z,64.28
2023-01-21T19:40:17.980Z,62.00
2023-01-21T19:42:47.365Z,64.03
2023-01-21T19:45:16.526Z,67.88
2023-01-21T19:47:45.543Z,60.70
2023-01-21T19:50:16.623Z,63.53
2023-01-21T19:52:44.675Z,58.85
2023-01-21T19:55:15.075Z,61.25
2023-01-21T19:57:43.312Z,61.15
2023-01-21T20:00:23.329Z,63.88
2023-01-21T20:02:50.935Z,64.43
2023-01-21T20:05:19.012Z,64.50
2023-01-21T20:07:48.169Z,61.43
2023-01-21T20:10:17.640Z,61.20
2023-01-21T20:12:45.339Z,65.47
2023-01-21T20:15:14.027Z,67.03
2023-01-21T20:17:46.194Z,71.53
2023-01-21T20:20:18.610Z,68.43
2023-01-21T20:22:46.264Z,66.05
2023-01-21T20:25:16.341Z,64.40
2023-01-21T20:27:45.541Z,65.68
2023-01-21T20:30:18.491Z,72.65
2023-01-21T20:32:49.001Z,64.95
2023-01-21T20:35:17.158Z,61.07
2023-01-21T20:37:47.539Z,54.50
2023-01-21T20:40:17.119Z,51.88
2023-01-21T20:42:44.857Z,50.20
2023-01-21T20:45:13.253Z,48.22
2023-01-21T20:47:49.694Z,48.58
2023-01-21T20:50:21.297Z,48.85
2023-01-21T20:52:49.733Z,45.58
2023-01-21T20:55:21.048Z,45.58
2023-01-21T20:57:49.105Z,44.10
2023-01-21T21:00:18.497Z,44.55
2023-01-21T21:02:46.542Z,46.47
2023-01-21T21:05:15.750Z,42.88
2023-01-21T21:07:45.038Z,45.20
2023-01-21T21:10:20.921Z,43.47
2023-01-21T21:12:48.866Z,47.35
2023-01-21T21:15:17.357Z,44.55
2023-01-21T21:17:46.890Z,41.63
2023-01-21T21:20:20.055Z,41.70
2023-01-21T21:22:49.074Z,41.42
2023-01-21T21:25:18.091Z,37.23
2023-01-21T21:27:46.489Z,39.40
2023-01-21T21:30:16.617Z,41.40
2023-01-21T21:32:44.739Z,51.08
2023-01-21T21:35:22.588Z,50.92
2023-01-21T21:37:52.619Z,48.05
2023-01-21T21:40:21.225Z,47.88
2023-01-21T21:43:06.425Z,47.92
2023-01-21T21:45:34.197Z,45.97
2023-01-21T21:48:20.337Z,51.22
2023-01-21T21:50:54.999Z,49.33
2023-01-21T21:53:24.166Z,48.53
2023-01-21T21:55:51.987Z,49.55
2023-01-21T21:58:19.587Z,44.17
2023-01-21T22:00:47.239Z,40.22
2023-01-21T22:03:14.890Z,38.80
2023-01-21T22:05:51.794Z,41.28
2023-01-21T22:08:19.418Z,40.53
2023-01-21T22:10:57.436Z,37.95
2023-01-21T22:13:25.118Z,32.42
2023-01-21T22:15:54.689Z,34.00
2023-01-21T22:18:22.389Z,37.63
2023-01-21T22:20:51.866Z,31.38
2023-01-21T22:23:19.500Z,29.38
2023-01-21T22:25:48.482Z,28.15
2023-01-21T22:28:16.147Z,27.83
2023-01-21T22:30:43.896Z,29.70
2023-01-21T22:33:12.335Z,29.25
2023-01-21T22:35:40.606Z,26.73
2023-01-21T22:38:08.358Z,26.88
2023-01-21T22:40:39.999Z,27.80
2023-01-21T22:43:09.105Z,28.25
2023-01-21T22:45:36.895Z,26.38
2023-01-21T22:48:04.700Z,25.05
2023-01-21T22:50:32.317Z,22.47
2023-01-21T22:52:59.937Z,23.77
2023-01-21T22:55:27.559Z,21.98
2023-01-21T22:57:55.141Z,22.40
2023-01-21T23:00:36.213Z,22.08
2023-01-21T23:03:03.989Z,22.05
2023-01-21T23:05:32.041Z,26.17
2023-01-21T23:10:32.407Z,23.13
2023-01-21T23:13:00.002Z,25.05
2023-01-21T23:15:27.652Z,21.83
2023-01-21T23:17:56.589Z,18.65
2023-01-21T23:20:28.664Z,15.15
2023-01-21T23:22:57.024Z,16.15
2023-01-21T23:25:24.990Z,14.73
2023-01-21T23:27:52.601Z,13.68
2023-01-21T23:30:20.322Z,12.27
2023-01-21T23:32:47.931Z,10.45
2023-01-21T23:35:18.962Z,10.07
2023-01-21T23:37:46.636Z,9.77
2023-01-21T23:40:14.605Z,10.43
2023-01-21T23:42:42.165Z,10.07
2023-01-21T23:45:10.748Z,11.40
2023-01-21T23:47:38.346Z,10.50
2023-01-21T23:50:08.590Z,9.68
2023-01-21T23:52:37.933Z,9.38
2023-01-21T23:55:07.280Z,10.18
2023-01-21T23:57:34.909Z,9.82
